sensor_id;sensor_type;location;lat;lon;timestamp;pressure;altitude;pressure_sealevel;temperature;humidity
43420;BME280;29017;51.514;-0.178;2024-01-10T00:00:15;102518.28;;;3.96;73.53
43420;BME280;29017;51.514;-0.178;2024-01-10T00:02:43;102521.84;;;3.93;74.41
43420;BME280;29017;51.514;-0.178;2024-01-10T00:05:10;102527.00;;;3.95;73.98
43420;BME280;29017;51.514;-0.178;2024-01-10T00:07:37;102518.50;;;3.91;73.71
43420;BME280;29017;51.514;-0.178;2024-01-10T00:10:04;102518.50;;;3.91;74.19
43420;BME280;29017;51.514;-0.178;2024-01-10T00:12:31;102527.13;;;3.92;74.10
43420;BME280;29017;51.514;-0.178;2024-01-10T00:15:03;102524.59;;;3.90;74.51
43420;BME280;29017;51.514;-0.178;2024-01-10T00:17:33;102522.69;;;3.94;76.46
43420;BME280;29017;51.514;-0.178;2024-01-10T00:20:00;102522.91;;;3.89;75.51
43420;BME280;29017;51.514;-0.178;2024-01-10T00:22:27;102518.59;;;3.88;76.08
43420;BME280;29017;51.514;-0.178;2024-01-10T00:24:54;102521.34;;;3.85;74.98
43420;BME280;29017;51.514;-0.178;2024-01-10T00:27:21;102523.16;;;3.83;75.11
43420;BME280;29017;51.514;-0.178;2024-01-10T00:29:48;102522.38;;;3.81;75.20
43420;BME280;29017;51.514;-0.178;2024-01-10T00:32:15;102523.22;;;3.81;76.27
43420;BME280;29017;51.514;-0.178;2024-01-10T00:34:42;102520.78;;;3.78;76.17
43420;BME280;29017;51.514;-0.178;2024-01-10T00:37:09;102519.00;;;3.79;76.01
43420;BME280;29017;51.514;-0.178;2024-01-10T00:39:36;102522.53;;;3.78;75.61
43420;BME280;29017;51.514;-0.178;2024-01-10T00:42:03;102523.56;;;3.74;76.06
43420;BME280;29017;51.514;-0.178;2024-01-10T00:44:30;102519.22;;;3.74;75.80
43420;BME280;29017;51.514;-0.178;2024-01-10T00:46:56;102518.44;;;3.72;75.82
43420;BME280;29017;51.514;-0.178;2024-01-10T00:49:23;102514.41;;;3.65;75.85
43420;BME280;29017;51.514;-0.178;2024-01-10T00:51:50;102519.34;;;3.71;77.64
43420;BME280;29017;51.514;-0.178;2024-01-10T00:54:17;102507.16;;;3.72;77.29
43420;BME280;29017;51.514;-0.178;2024-01-10T00:56:44;102515.81;;;3.72;76.47
43420;BME280;29017;51.514;-0.178;2024-01-10T00:59:11;102508.88;;;3.73;76.22
43420;BME280;29017;51.514;-0.178;2024-01-10T01:01:38;102508.66;;;3.77;75.89
43420;BME280;29017;51.514;-0.178;2024-01-10T01:04:05;102511.41;;;3.74;76.15
43420;BME280;29017;51.514;-0.178;2024-01-10T01:06:32;102498.31;;;3.76;75.79
43420;BME280;29017;51.514;-0.178;2024-01-10T01:08:59;102497.59;;;3.72;75.41
43420;BME280;29017;51.514;-0.178;2024-01-10T01:11:25;102493.47;;;3.68;75.52
43420;BME280;29017;51.514;-0.178;2024-01-10T01:13:56;102507.25;;;3.70;76.09
43420;BME280;29017;51.514;-0.178;2024-01-10T01:16:23;102495.84;;;3.73;75.72
43420;BME280;29017;51.514;-0.178;2024-01-10T01:18:50;102513.22;;;3.72;76.36
43420;BME280;29017;51.514;-0.178;2024-01-10T01:21:17;102507.31;;;3.69;75.65
43420;BME280;29017;51.514;-0.178;2024-01-10T01:23:44;102491.13;;;3.62;75.41
43420;BME280;29017;51.514;-0.178;2024-01-10T01:26:11;102493.91;;;3.58;75.99
43420;BME280;29017;51.514;-0.178;2024-01-10T01:28:40;102493.06;;;3.57;75.84
43420;BME280;29017;51.514;-0.178;2024-01-10T01:31:07;102496.56;;;3.56;75.99
43420;BME280;29017;51.514;-0.178;2024-01-10T01:33:34;102493.88;;;3.59;76.31
43420;BME280;29017;51.514;-0.178;2024-01-10T01:36:03;102495.56;;;3.60;75.85
43420;BME280;29017;51.514;-0.178;2024-01-10T01:38:30;102499.19;;;3.56;75.82
43420;BME280;29017;51.514;-0.178;2024-01-10T01:40:57;102494.97;;;3.54;76.34
43420;BME280;29017;51.514;-0.178;2024-01-10T01:43:25;102487.16;;;3.54;75.99
43420;BME280;29017;51.514;-0.178;2024-01-10T01:45:53;102483.50;;;3.58;76.82
43420;BME280;29017;51.514;-0.178;2024-01-10T01:48:22;102480.75;;;3.61;76.53
43420;BME280;29017;51.514;-0.178;2024-01-10T01:50:56;102477.47;;;3.57;75.60
43420;BME280;29017;51.514;-0.178;2024-01-10T01:53:28;102483.00;;;3.50;75.69
43420;BME280;29017;51.514;-0.178;2024-01-10T01:55:56;102489.88;;;3.51;76.02
43420;BME280;29017;51.514;-0.178;2024-01-10T01:58:23;102490.72;;;3.51;75.79
43420;BME280;29017;51.514;-0.178;2024-01-10T02:00:51;102485.72;;;3.47;75.95
43420;BME280;29017;51.514;-0.178;2024-01-10T02:03:26;102491.19;;;3.40;75.78
43420;BME280;29017;51.514;-0.178;2024-01-10T02:06:02;102478.81;;;3.45;76.78
43420;BME280;29017;51.514;-0.178;2024-01-10T02:08:34;102484.88;;;3.46;76.27
43420;BME280;29017;51.514;-0.178;2024-01-10T02:11:16;102484.19;;;3.42;76.36
43420;BME280;29017;51.514;-0.178;2024-01-10T02:13:43;102488.47;;;3.43;75.92
43420;BME280;29017;51.514;-0.178;2024-01-10T02:16:10;102485.97;;;3.40;76.14
43420;BME280;29017;51.514;-0.178;2024-01-10T02:18:41;102483.31;;;3.42;76.14
43420;BME280;29017;51.514;-0.178;2024-01-10T02:21:11;102496.97;;;3.47;76.47
43420;BME280;29017;51.514;-0.178;2024-01-10T02:23:38;102491.94;;;3.44;76.02
43420;BME280;29017;51.514;-0.178;2024-01-10T02:26:05;102483.28;;;3.43;76.57
43420;BME280;29017;51.514;-0.178;2024-01-10T02:28:33;102488.28;;;3.48;76.12
43420;BME280;29017;51.514;-0.178;2024-01-10T02:31:00;102484.69;;;3.51;76.30
43420;BME280;29017;51.514;-0.178;2024-01-10T02:33:29;102488.91;;;3.53;76.10
43420;BME280;29017;51.514;-0.178;2024-01-10T02:36:02;102489.97;;;3.49;75.70
43420;BME280;29017;51.514;-0.178;2024-01-10T02:38:31;102479.75;;;3.44;75.81
43420;BME280;29017;51.514;-0.178;2024-01-10T02:41:05;102477.94;;;3.47;75.64
43420;BME280;29017;51.514;-0.178;2024-01-10T02:43:32;102478.31;;;3.37;76.02
43420;BME280;29017;51.514;-0.178;2024-01-10T02:46:00;102475.66;;;3.39;76.42
43420;BME280;29017;51.514;-0.178;2024-01-10T02:48:27;102476.44;;;3.41;76.34
43420;BME280;29017;51.514;-0.178;2024-01-10T02:50:55;102471.38;;;3.38;76.35
43420;BME280;29017;51.514;-0.178;2024-01-10T02:53:22;102472.91;;;3.42;76.49
43420;BME280;29017;51.514;-0.178;2024-01-10T02:55:50;102472.03;;;3.43;76.30
43420;BME280;29017;51.514;-0.178;2024-01-10T02:58:17;102468.41;;;3.45;76.37
43420;BME280;29017;51.514;-0.178;2024-01-10T03:00:44;102467.72;;;3.42;76.70
43420;BME280;29017;51.514;-0.178;2024-01-10T03:03:11;102460.56;;;3.47;77.85
43420;BME280;29017;51.514;-0.178;2024-01-10T03:05:38;102467.31;;;3.51;76.73
43420;BME280;29017;51.514;-0.178;2024-01-10T03:08:05;102448.13;;;3.54;77.15
43420;BME280;29017;51.514;-0.178;2024-01-10T03:10:33;102459.50;;;3.51;76.75
43420;BME280;29017;51.514;-0.178;2024-01-10T03:13:01;102448.34;;;3.49;76.61
43420;BME280;29017;51.514;-0.178;2024-01-10T03:15:29;102458.66;;;3.51;77.35
43420;BME280;29017;51.514;-0.178;2024-01-10T03:17:57;102450.09;;;3.49;76.88
43420;BME280;29017;51.514;-0.178;2024-01-10T03:20:24;102458.81;;;3.48;77.59
43420;BME280;29017;51.514;-0.178;2024-01-10T03:22:52;102450.16;;;3.47;77.54
43420;BME280;29017;51.514;-0.178;2024-01-10T03:25:18;102449.19;;;3.50;77.90
43420;BME280;29017;51.514;-0.178;2024-01-10T03:27:45;102446.22;;;3.38;77.28
43420;BME280;29017;51.514;-0.178;2024-01-10T03:30:13;102450.56;;;3.38;77.72
43420;BME280;29017;51.514;-0.178;2024-01-10T03:32:40;102449.50;;;3.42;77.90
43420;BME280;29017;51.514;-0.178;2024-01-10T03:35:07;102448.88;;;3.37;77.52
43420;BME280;29017;51.514;-0.178;2024-01-10T03:37:35;102444.47;;;3.39;78.12
43420;BME280;29017;51.514;-0.178;2024-01-10T03:40:02;102442.69;;;3.39;77.73
43420;BME280;29017;51.514;-0.178;2024-01-10T03:42:29;102441.84;;;3.39;78.40
43420;BME280;29017;51.514;-0.178;2024-01-10T03:44:56;102442.81;;;3.36;77.88
43420;BME280;29017;51.514;-0.178;2024-01-10T03:47:23;102438.53;;;3.35;77.93
43420;BME280;29017;51.514;-0.178;2024-01-10T03:49:51;102435.75;;;3.40;78.84
43420;BME280;29017;51.514;-0.178;2024-01-10T03:52:19;102446.22;;;3.38;77.87
43420;BME280;29017;51.514;-0.178;2024-01-10T03:54:46;102437.50;;;3.39;77.69
43420;BME280;29017;51.514;-0.178;2024-01-10T03:57:13;102436.66;;;3.39;78.05
43420;BME280;29017;51.514;-0.178;2024-01-10T03:59:40;102444.47;;;3.39;77.67
43420;BME280;29017;51.514;-0.178;2024-01-10T04:02:07;102438.41;;;3.38;77.56
43420;BME280;29017;51.514;-0.178;2024-01-10T04:04:36;102436.75;;;3.36;77.85
43420;BME280;29017;51.514;-0.178;2024-01-10T04:07:09;102439.38;;;3.36;77.93
43420;BME280;29017;51.514;-0.178;2024-01-10T04:09:36;102441.22;;;3.34;77.42
43420;BME280;29017;51.514;-0.178;2024-01-10T04:12:03;102438.59;;;3.34;77.50
43420;BME280;29017;51.514;-0.178;2024-01-10T04:14:30;102433.25;;;3.37;77.50
43420;BME280;29017;51.514;-0.178;2024-01-10T04:16:59;102445.50;;;3.35;77.57
43420;BME280;29017;51.514;-0.178;2024-01-10T04:19:26;102442.16;;;3.31;77.17
43420;BME280;29017;51.514;-0.178;2024-01-10T04:21:53;102438.72;;;3.31;77.67
43420;BME280;29017;51.514;-0.178;2024-01-10T04:24:20;102426.66;;;3.30;77.85
43420;BME280;29017;51.514;-0.178;2024-01-10T04:26:47;102431.50;;;3.37;77.88
43420;BME280;29017;51.514;-0.178;2024-01-10T04:29:14;102421.16;;;3.36;77.82
43420;BME280;29017;51.514;-0.178;2024-01-10T04:31:41;102420.31;;;3.35;77.49
43420;BME280;29017;51.514;-0.178;2024-01-10T04:34:08;102428.97;;;3.36;77.17
43420;BME280;29017;51.514;-0.178;2024-01-10T04:36:35;102429.75;;;3.38;77.60
43420;BME280;29017;51.514;-0.178;2024-01-10T04:39:02;102421.09;;;3.37;77.18
43420;BME280;29017;51.514;-0.178;2024-01-10T04:41:29;102422.78;;;3.38;76.33
43420;BME280;29017;51.514;-0.178;2024-01-10T04:43:56;102421.03;;;3.39;76.21
43420;BME280;29017;51.514;-0.178;2024-01-10T04:46:23;102416.09;;;3.33;75.33
43420;BME280;29017;51.514;-0.178;2024-01-10T04:48:50;102415.97;;;3.36;75.84
43420;BME280;29017;51.514;-0.178;2024-01-10T04:51:18;102423.91;;;3.33;75.78
43420;BME280;29017;51.514;-0.178;2024-01-10T04:53:45;102418.72;;;3.33;75.07
43420;BME280;29017;51.514;-0.178;2024-01-10T04:56:32;102426.50;;;3.33;74.60
43420;BME280;29017;51.514;-0.178;2024-01-10T04:58:59;102415.25;;;3.32;75.29
43420;BME280;29017;51.514;-0.178;2024-01-10T05:01:26;102421.50;;;3.28;74.67
43420;BME280;29017;51.514;-0.178;2024-01-10T05:03:56;102421.56;;;3.27;74.86
43420;BME280;29017;51.514;-0.178;2024-01-10T05:06:23;102423.97;;;3.31;73.22
43420;BME280;29017;51.514;-0.178;2024-01-10T05:08:50;102425.66;;;3.32;72.62
43420;BME280;29017;51.514;-0.178;2024-01-10T05:11:17;102421.63;;;3.25;72.28
43420;BME280;29017;51.514;-0.178;2024-01-10T05:13:44;102419.81;;;3.27;72.35
43420;BME280;29017;51.514;-0.178;2024-01-10T05:16:11;102416.38;;;3.27;72.43
43420;BME280;29017;51.514;-0.178;2024-01-10T05:18:38;102421.56;;;3.27;72.20
43420;BME280;29017;51.514;-0.178;2024-01-10T05:21:05;102412.91;;;3.26;71.79
43420;BME280;29017;51.514;-0.178;2024-01-10T05:23:32;102418.97;;;3.27;72.05
43420;BME280;29017;51.514;-0.178;2024-01-10T05:25:59;102425.16;;;3.24;71.66
43420;BME280;29017;51.514;-0.178;2024-01-10T05:28:26;102406.38;;;3.18;71.75
43420;BME280;29017;51.514;-0.178;2024-01-10T05:30:53;102415.72;;;3.22;72.10
43420;BME280;29017;51.514;-0.178;2024-01-10T05:33:20;102415.78;;;3.20;72.25
43420;BME280;29017;51.514;-0.178;2024-01-10T05:35:47;102416.44;;;3.25;72.33
43420;BME280;29017;51.514;-0.178;2024-01-10T05:38:14;102411.09;;;3.28;71.43
43420;BME280;29017;51.514;-0.178;2024-01-10T05:40:42;102409.41;;;3.27;71.70
43420;BME280;29017;51.514;-0.178;2024-01-10T05:43:09;102409.16;;;3.33;71.96
43420;BME280;29017;51.514;-0.178;2024-01-10T05:45:39;102411.59;;;3.36;71.92
43420;BME280;29017;51.514;-0.178;2024-01-10T05:48:06;102408.94;;;3.38;70.25
43420;BME280;29017;51.514;-0.178;2024-01-10T05:50:34;102409.91;;;3.35;70.58
43420;BME280;29017;51.514;-0.178;2024-01-10T05:53:00;102413.34;;;3.36;70.38
43420;BME280;29017;51.514;-0.178;2024-01-10T05:55:31;102403.91;;;3.35;70.98
43420;BME280;29017;51.514;-0.178;2024-01-10T05:57:59;102408.09;;;3.37;70.13
43420;BME280;29017;51.514;-0.178;2024-01-10T06:00:26;102412.50;;;3.35;69.73
43420;BME280;29017;51.514;-0.178;2024-01-10T06:02:55;102418.75;;;3.31;71.36
43420;BME280;29017;51.514;-0.178;2024-01-10T06:05:22;102411.81;;;3.32;71.31
43420;BME280;29017;51.514;-0.178;2024-01-10T06:07:52;102415.09;;;3.35;70.01
43420;BME280;29017;51.514;-0.178;2024-01-10T06:10:19;102413.31;;;3.37;70.67
43420;BME280;29017;51.514;-0.178;2024-01-10T06:13:00;102410.75;;;3.36;70.08
43420;BME280;29017;51.514;-0.178;2024-01-10T06:15:34;102413.31;;;3.37;71.08
43420;BME280;29017;51.514;-0.178;2024-01-10T06:18:01;102420.97;;;3.40;70.71
43420;BME280;29017;51.514;-0.178;2024-01-10T06:20:28;102415.91;;;3.37;69.78
43420;BME280;29017;51.514;-0.178;2024-01-10T06:22:55;102424.56;;;3.38;70.51
43420;BME280;29017;51.514;-0.178;2024-01-10T06:25:42;102416.75;;;3.38;70.04
43420;BME280;29017;51.514;-0.178;2024-01-10T06:28:09;102427.09;;;3.39;69.70
43420;BME280;29017;51.514;-0.178;2024-01-10T06:30:36;102422.78;;;3.38;70.61
43420;BME280;29017;51.514;-0.178;2024-01-10T06:33:03;102423.56;;;3.40;70.32
43420;BME280;29017;51.514;-0.178;2024-01-10T06:35:33;102418.34;;;3.40;70.18
43420;BME280;29017;51.514;-0.178;2024-01-10T06:38:01;102424.28;;;3.44;70.72
43420;BME280;29017;51.514;-0.178;2024-01-10T06:40:30;102426.81;;;3.45;69.70
43420;BME280;29017;51.514;-0.178;2024-01-10T06:42:58;102425.13;;;3.44;70.65
43420;BME280;29017;51.514;-0.178;2024-01-10T06:45:25;102421.69;;;3.44;71.16
43420;BME280;29017;51.514;-0.178;2024-01-10T06:47:53;102426.00;;;3.45;69.88
43420;BME280;29017;51.514;-0.178;2024-01-10T06:52:48;102422.59;;;3.43;70.27
43420;BME280;29017;51.514;-0.178;2024-01-10T06:55:15;102432.16;;;3.42;69.76
43420;BME280;29017;51.514;-0.178;2024-01-10T06:57:42;102419.34;;;3.38;70.28
43420;BME280;29017;51.514;-0.178;2024-01-10T07:00:09;102419.19;;;3.41;70.13
43420;BME280;29017;51.514;-0.178;2024-01-10T07:02:37;102422.91;;;3.35;69.82
43420;BME280;29017;51.514;-0.178;2024-01-10T07:05:06;102426.31;;;3.37;70.27
43420;BME280;29017;51.514;-0.178;2024-01-10T07:07:34;102421.94;;;3.38;70.06
43420;BME280;29017;51.514;-0.178;2024-01-10T07:10:02;102423.72;;;3.37;70.70
43420;BME280;29017;51.514;-0.178;2024-01-10T07:12:33;102422.09;;;3.35;69.97
43420;BME280;29017;51.514;-0.178;2024-01-10T07:15:02;102422.16;;;3.33;71.25
43420;BME280;29017;51.514;-0.178;2024-01-10T07:17:30;102430.72;;;3.35;69.86
43420;BME280;29017;51.514;-0.178;2024-01-10T07:19:57;102416.69;;;3.39;70.52
43420;BME280;29017;51.514;-0.178;2024-01-10T07:22:24;102426.94;;;3.42;70.26
43420;BME280;29017;51.514;-0.178;2024-01-10T07:24:51;102436.50;;;3.42;70.26
43420;BME280;29017;51.514;-0.178;2024-01-10T07:27:19;102429.50;;;3.44;71.38
43420;BME280;29017;51.514;-0.178;2024-01-10T07:29:47;102427.78;;;3.43;70.23
43420;BME280;29017;51.514;-0.178;2024-01-10T07:32:14;102432.94;;;3.44;70.50
43420;BME280;29017;51.514;-0.178;2024-01-10T07:34:44;102428.50;;;3.47;70.93
43420;BME280;29017;51.514;-0.178;2024-01-10T07:37:12;102437.03;;;3.50;70.11
43420;BME280;29017;51.514;-0.178;2024-01-10T07:39:40;102434.44;;;3.50;69.95
43420;BME280;29017;51.514;-0.178;2024-01-10T07:42:06;102435.19;;;3.52;69.23
43420;BME280;29017;51.514;-0.178;2024-01-10T07:44:33;102437.94;;;3.49;69.08
43420;BME280;29017;51.514;-0.178;2024-01-10T07:47:00;102442.09;;;3.53;70.18
43420;BME280;29017;51.514;-0.178;2024-01-10T07:49:28;102444.69;;;3.53;69.57
43420;BME280;29017;51.514;-0.178;2024-01-10T07:51:57;102442.25;;;3.50;70.32
43420;BME280;29017;51.514;-0.178;2024-01-10T07:54:24;102439.63;;;3.50;71.42
43420;BME280;29017;51.514;-0.178;2024-01-10T07:57:07;102453.19;;;3.57;69.26
43420;BME280;29017;51.514;-0.178;2024-01-10T07:59:38;102450.53;;;3.58;70.69
43420;BME280;29017;51.514;-0.178;2024-01-10T08:02:19;102445.81;;;3.66;73.92
43420;BME280;29017;51.514;-0.178;2024-01-10T08:05:01;102452.59;;;3.70;72.21
43420;BME280;29017;51.514;-0.178;2024-01-10T08:07:32;102452.47;;;3.73;69.29
43420;BME280;29017;51.514;-0.178;2024-01-10T08:10:01;102449.69;;;3.76;69.96
43420;BME280;29017;51.514;-0.178;2024-01-10T08:12:42;102446.47;;;3.71;69.88
43420;BME280;29017;51.514;-0.178;2024-01-10T08:15:24;102462.66;;;3.78;69.05
43420;BME280;29017;51.514;-0.178;2024-01-10T08:18:05;102459.84;;;3.82;69.79
43420;BME280;29017;51.514;-0.178;2024-01-10T08:20:37;102459.78;;;3.84;68.87
43420;BME280;29017;51.514;-0.178;2024-01-10T08:23:05;102456.50;;;3.80;68.48
43420;BME280;29017;51.514;-0.178;2024-01-10T08:25:32;102458.88;;;3.85;68.34
43420;BME280;29017;51.514;-0.178;2024-01-10T08:27:59;102456.41;;;3.82;68.49
43420;BME280;29017;51.514;-0.178;2024-01-10T08:30:28;102469.34;;;3.83;68.72
43420;BME280;29017;51.514;-0.178;2024-01-10T08:32:56;102467.38;;;3.88;67.96
43420;BME280;29017;51.514;-0.178;2024-01-10T08:35:24;102469.94;;;3.90;68.02
43420;BME280;29017;51.514;-0.178;2024-01-10T08:37:55;102477.81;;;3.88;68.09
43420;BME280;29017;51.514;-0.178;2024-01-10T08:40:22;102470.00;;;3.88;68.33
43420;BME280;29017;51.514;-0.178;2024-01-10T08:42:52;102480.34;;;3.90;67.60
43420;BME280;29017;51.514;-0.178;2024-01-10T08:45:21;102474.22;;;3.91;67.77
43420;BME280;29017;51.514;-0.178;2024-01-10T08:47:52;102471.47;;;3.94;68.13
43420;BME280;29017;51.514;-0.178;2024-01-10T08:50:21;102474.66;;;4.01;67.88
43420;BME280;29017;51.514;-0.178;2024-01-10T08:52:51;102480.78;;;4.00;67.95
43420;BME280;29017;51.514;-0.178;2024-01-10T08:55:20;102479.97;;;3.98;68.40
43420;BME280;29017;51.514;-0.178;2024-01-10T08:57:48;102483.44;;;3.98;68.24
43420;BME280;29017;51.514;-0.178;2024-01-10T09:00:17;102478.50;;;3.92;68.42
43420;BME280;29017;51.514;-0.178;2024-01-10T09:02:44;102492.31;;;3.94;68.44
43420;BME280;29017;51.514;-0.178;2024-01-10T09:05:12;102478.50;;;3.92;69.79
43420;BME280;29017;51.514;-0.178;2024-01-10T09:07:39;102487.88;;;3.96;69.32
43420;BME280;29017;51.514;-0.178;2024-01-10T09:10:08;102483.31;;;4.01;69.05
43420;BME280;29017;51.514;-0.178;2024-01-10T09:12:36;102484.06;;;4.03;69.44
43420;BME280;29017;51.514;-0.178;2024-01-10T09:15:03;102487.09;;;4.13;69.80
43420;BME280;29017;51.514;-0.178;2024-01-10T09:17:31;102481.88;;;4.13;69.39
43420;BME280;29017;51.514;-0.178;2024-01-10T09:19:58;102479.22;;;4.14;69.05
43420;BME280;29017;51.514;-0.178;2024-01-10T09:22:25;102480.81;;;4.17;69.66
43420;BME280;29017;51.514;-0.178;2024-01-10T09:24:53;102486.66;;;4.22;69.21
43420;BME280;29017;51.514;-0.178;2024-01-10T09:27:21;102489.91;;;4.27;69.00
43420;BME280;29017;51.514;-0.178;2024-01-10T09:29:49;102490.69;;;4.29;69.08
43420;BME280;29017;51.514;-0.178;2024-01-10T09:32:18;102494.34;;;4.25;69.35
43420;BME280;29017;51.514;-0.178;2024-01-10T09:34:46;102495.91;;;4.29;69.49
43420;BME280;29017;51.514;-0.178;2024-01-10T09:37:13;102497.72;;;4.27;69.30
43420;BME280;29017;51.514;-0.178;2024-01-10T09:39:41;102491.53;;;4.29;70.01
43420;BME280;29017;51.514;-0.178;2024-01-10T09:42:09;102490.13;;;4.41;70.65
43420;BME280;29017;51.514;-0.178;2024-01-10T09:44:36;102488.16;;;4.46;69.00
43420;BME280;29017;51.514;-0.178;2024-01-10T09:47:04;102486.88;;;4.55;68.70
43420;BME280;29017;51.514;-0.178;2024-01-10T09:49:32;102486.72;;;4.58;68.78
43420;BME280;29017;51.514;-0.178;2024-01-10T09:52:03;102490.03;;;4.61;68.60
43420;BME280;29017;51.514;-0.178;2024-01-10T09:54:30;102488.19;;;4.63;68.21
43420;BME280;29017;51.514;-0.178;2024-01-10T09:56:57;102489.31;;;4.58;69.48
43420;BME280;29017;51.514;-0.178;2024-01-10T09:59:26;102489.72;;;4.67;68.31
43420;BME280;29017;51.514;-0.178;2024-01-10T10:01:53;102486.69;;;4.77;68.06
43420;BME280;29017;51.514;-0.178;2024-01-10T10:04:21;102489.13;;;4.80;68.10
43420;BME280;29017;51.514;-0.178;2024-01-10T10:09:29;102500.97;;;4.87;67.38
43420;BME280;29017;51.514;-0.178;2024-01-10T10:11:57;102497.13;;;4.94;67.33
43420;BME280;29017;51.514;-0.178;2024-01-10T10:14:24;102491.44;;;5.03;66.83
43420;BME280;29017;51.514;-0.178;2024-01-10T10:19:26;102487.06;;;5.03;66.85
43420;BME280;29017;51.514;-0.178;2024-01-10T10:22:07;102485.88;;;5.10;66.99
43420;BME280;29017;51.514;-0.178;2024-01-10T10:24:37;102488.47;;;5.10;65.89
43420;BME280;29017;51.514;-0.178;2024-01-10T10:27:08;102479.63;;;5.13;66.12
43420;BME280;29017;51.514;-0.178;2024-01-10T10:29:36;102484.03;;;5.12;66.71
43420;BME280;29017;51.514;-0.178;2024-01-10T10:32:05;102483.94;;;5.14;65.97
43420;BME280;29017;51.514;-0.178;2024-01-10T10:34:35;102488.91;;;5.18;66.94
43420;BME280;29017;51.514;-0.178;2024-01-10T10:37:03;102484.47;;;5.21;67.08
43420;BME280;29017;51.514;-0.178;2024-01-10T10:39:32;102486.56;;;5.31;65.97
43420;BME280;29017;51.514;-0.178;2024-01-10T10:41:59;102482.56;;;5.41;65.94
43420;BME280;29017;51.514;-0.178;2024-01-10T10:44:28;102481.41;;;5.47;65.81
43420;BME280;29017;51.514;-0.178;2024-01-10T10:46:56;102481.16;;;5.51;64.57
43420;BME280;29017;51.514;-0.178;2024-01-10T10:49:39;102487.97;;;5.54;64.74
43420;BME280;29017;51.514;-0.178;2024-01-10T10:52:08;102483.59;;;5.54;64.78
43420;BME280;29017;51.514;-0.178;2024-01-10T10:54:36;102487.00;;;5.56;64.35
43420;BME280;29017;51.514;-0.178;2024-01-10T10:57:05;102480.84;;;5.57;64.48
43420;BME280;29017;51.514;-0.178;2024-01-10T10:59:32;102480.38;;;5.67;65.01
43420;BME280;29017;51.514;-0.178;2024-01-10T11:02:00;102473.31;;;5.69;64.75
43420;BME280;29017;51.514;-0.178;2024-01-10T11:04:28;102473.13;;;5.72;64.58
43420;BME280;29017;51.514;-0.178;2024-01-10T11:06:56;102472.88;;;5.76;64.71
43420;BME280;29017;51.514;-0.178;2024-01-10T11:09:23;102472.50;;;5.84;64.40
43420;BME280;29017;51.514;-0.178;2024-01-10T11:14:21;102472.09;;;5.91;63.61
43420;BME280;29017;51.514;-0.178;2024-01-10T11:22:46;102484.41;;;6.05;63.11
43420;BME280;29017;51.514;-0.178;2024-01-10T11:25:16;102478.69;;;5.98;62.63
43420;BME280;29017;51.514;-0.178;2024-01-10T11:27:44;102469.84;;;6.01;63.00
43420;BME280;29017;51.514;-0.178;2024-01-10T11:30:14;102469.69;;;6.04;62.67
43420;BME280;29017;51.514;-0.178;2024-01-10T11:32:56;102476.44;;;6.08;62.53
43420;BME280;29017;51.514;-0.178;2024-01-10T11:35:23;102473.97;;;6.05;62.76
43420;BME280;29017;51.514;-0.178;2024-01-10T11:37:51;102480.38;;;5.99;62.27
43420;BME280;29017;51.514;-0.178;2024-01-10T11:40:24;102469.78;;;6.03;62.18
43420;BME280;29017;51.514;-0.178;2024-01-10T11:43:05;102476.56;;;6.05;62.42
43420;BME280;29017;51.514;-0.178;2024-01-10T11:45:40;102479.88;;;6.09;61.57
43420;BME280;29017;51.514;-0.178;2024-01-10T11:48:17;102466.56;;;5.97;61.46
43420;BME280;29017;51.514;-0.178;2024-01-10T11:50:44;102477.19;;;6.10;61.37
43420;BME280;29017;51.514;-0.178;2024-01-10T11:53:11;102461.03;;;6.19;62.18
43420;BME280;29017;51.514;-0.178;2024-01-10T11:55:47;102471.53;;;6.18;61.44
43420;BME280;29017;51.514;-0.178;2024-01-10T11:58:18;102470.63;;;6.19;60.71
43420;BME280;29017;51.514;-0.178;2024-01-10T12:00:46;102458.41;;;6.19;60.87
43420;BME280;29017;51.514;-0.178;2024-01-10T12:03:13;102451.38;;;6.20;60.76
43420;BME280;29017;51.514;-0.178;2024-01-10T12:05:40;102464.97;;;6.26;61.11
43420;BME280;29017;51.514;-0.178;2024-01-10T12:08:08;102454.00;;;6.20;59.86
43420;BME280;29017;51.514;-0.178;2024-01-10T12:10:36;102470.97;;;6.28;60.21
43420;BME280;29017;51.514;-0.178;2024-01-10T12:13:03;102446.41;;;6.31;60.61
43420;BME280;29017;51.514;-0.178;2024-01-10T12:15:33;102452.06;;;6.39;60.00
43420;BME280;29017;51.514;-0.178;2024-01-10T12:18:01;102447.00;;;6.36;59.88
43420;BME280;29017;51.514;-0.178;2024-01-10T12:20:27;102436.41;;;6.39;59.86
43420;BME280;29017;51.514;-0.178;2024-01-10T12:22:56;102436.78;;;6.47;59.98
43420;BME280;29017;51.514;-0.178;2024-01-10T12:25:23;102435.03;;;6.48;59.45
43420;BME280;29017;51.514;-0.178;2024-01-10T12:27:50;102424.50;;;6.49;59.56
43420;BME280;29017;51.514;-0.178;2024-01-10T12:30:17;102428.09;;;6.47;59.49
43420;BME280;29017;51.514;-0.178;2024-01-10T12:32:49;102419.84;;;6.54;59.33
43420;BME280;29017;51.514;-0.178;2024-01-10T12:35:17;102411.66;;;6.60;60.05
43420;BME280;29017;51.514;-0.178;2024-01-10T12:37:56;102408.09;;;6.61;59.70
43420;BME280;29017;51.514;-0.178;2024-01-10T12:40:23;102411.00;;;6.71;58.52
43420;BME280;29017;51.514;-0.178;2024-01-10T12:43:01;102408.31;;;6.72;58.72
43420;BME280;29017;51.514;-0.178;2024-01-10T12:45:27;102413.38;;;6.75;58.84
43420;BME280;29017;51.514;-0.178;2024-01-10T12:47:55;102401.97;;;6.76;58.06
43420;BME280;29017;51.514;-0.178;2024-01-10T12:50:22;102400.78;;;6.82;57.47
43420;BME280;29017;51.514;-0.178;2024-01-10T12:52:51;102403.28;;;6.69;57.30
43420;BME280;29017;51.514;-0.178;2024-01-10T12:55:18;102413.16;;;6.64;57.67
43420;BME280;29017;51.514;-0.178;2024-01-10T12:57:45;102398.19;;;6.66;57.41
43420;BME280;29017;51.514;-0.178;2024-01-10T13:00:12;102399.53;;;6.73;57.93
43420;BME280;29017;51.514;-0.178;2024-01-10T13:02:41;102392.47;;;6.75;58.03
43420;BME280;29017;51.514;-0.178;2024-01-10T13:05:08;102401.69;;;6.81;57.71
43420;BME280;29017;51.514;-0.178;2024-01-10T13:07:39;102391.91;;;6.84;57.52
43420;BME280;29017;51.514;-0.178;2024-01-10T13:10:07;102399.50;;;6.89;56.59
43420;BME280;29017;51.514;-0.178;2024-01-10T13:12:34;102390.41;;;6.80;56.04